createdAt,value
2022-11-25T00:01:32.007Z,15.70
2022-11-25T00:03:59.854Z,20.23
2022-11-25T00:06:31.852Z,19.20
2022-11-25T00:09:07.861Z,17.63
2022-11-25T00:11:36.528Z,17.83
2022-11-25T00:14:08.318Z,19.50
2022-11-25T00:21:05.295Z,17.42
2022-11-25T00:23:33.632Z,14.75
2022-11-25T00:26:15.820Z,20.80
2022-11-25T00:28:44.603Z,22.40
2022-11-25T00:31:23.225Z,21.52
2022-11-25T00:33:52.297Z,13.70
2022-11-25T00:36:25.570Z,20.30
2022-11-25T00:39:01.061Z,20.83
2022-11-25T00:41:48.610Z,18.98
2022-11-25T00:44:37.025Z,23.67
2022-11-25T00:47:14.949Z,9.35
2022-11-25T00:49:52.272Z,7.80
2022-11-25T00:52:24.963Z,8.07
2022-11-25T00:54:54.200Z,11.55
2022-11-25T00:57:23.338Z,13.48
2022-11-25T00:59:51.376Z,7.18
2022-11-25T01:02:24.142Z,7.97
2022-11-25T01:05:55.600Z,8.15
2022-11-25T01:08:22.456Z,6.65
2022-11-25T01:11:52.535Z,4.18
2022-11-25T01:14:23.061Z,8.98
2022-11-25T01:16:52.257Z,7.22
2022-11-25T01:19:20.668Z,6.63
2022-11-25T01:21:49.529Z,5.50
2022-11-25T01:24:18.008Z,6.75
2022-11-25T01:26:46.644Z,4.05
2022-11-25T01:29:18.924Z,3.38
2022-11-25T01:31:48.716Z,5.30
2022-11-25T01:34:21.005Z,4.57
2022-11-25T01:36:49.298Z,4.70
2022-11-25T01:39:28.406Z,5.22
2022-11-25T01:42:05.238Z,6.60
2022-11-25T01:44:39.322Z,6.40
2022-11-25T01:47:25.609Z,8.73
2022-11-25T01:49:58.763Z,8.05
2022-11-25T01:52:32.251Z,5.25
2022-11-25T01:55:26.484Z,5.75
2022-11-25T01:58:07.378Z,5.30
2022-11-25T02:00:37.870Z,3.75
2022-11-25T02:03:05.525Z,4.03
2022-11-25T02:05:46.679Z,6.90
2022-11-25T02:08:17.095Z,4.05
2022-11-25T02:10:46.749Z,5.78
2022-11-25T02:13:15.045Z,4.32
2022-11-25T02:15:42.019Z,3.20
2022-11-25T02:18:12.114Z,3.55
2022-11-25T02:20:40.369Z,3.25
2022-11-25T02:23:58.685Z,5.32
2022-11-25T02:26:27.021Z,5.15
2022-11-25T02:28:54.519Z,7.38
2022-11-25T02:31:23.453Z,4.35
2022-11-25T02:34:43.404Z,2.28
2022-11-25T02:37:11.364Z,4.40
2022-11-25T02:39:38.121Z,4.35
2022-11-25T02:42:08.057Z,4.72
2022-11-25T02:44:36.289Z,3.40
2022-11-25T02:47:06.519Z,4.38
2022-11-25T02:49:33.376Z,4.65
2022-11-25T02:52:00.319Z,5.25
2022-11-25T02:54:28.664Z,5.43
2022-11-25T02:56:57.751Z,7.07
2022-11-25T02:59:24.609Z,8.48
2022-11-25T03:01:53.584Z,5.57
2022-11-25T03:04:20.684Z,5.93
2022-11-25T03:06:49.565Z,6.93
2022-11-25T03:09:17.540Z,5.72
2022-11-25T03:12:03.913Z,10.18
2022-11-25T03:14:31.876Z,9.50
2022-11-25T03:16:59.784Z,12.52
2022-11-25T03:19:29.062Z,8.02
2022-11-25T03:21:56.906Z,9.35
2022-11-25T03:24:23.778Z,12.45
2022-11-25T03:26:51.656Z,13.63
2022-11-25T03:29:20.932Z,8.60
2022-11-25T03:31:55.092Z,12.70
2022-11-25T03:34:24.516Z,13.50
2022-11-25T03:37:17.654Z,11.18
2022-11-25T03:39:44.920Z,9.52
2022-11-25T03:42:14.745Z,9.38
2022-11-25T03:44:44.057Z,10.52
2022-11-25T03:47:14.096Z,11.18
2022-11-25T03:49:43.683Z,11.90
2022-11-25T03:52:10.572Z,10.00
2022-11-25T03:55:29.857Z,8.90
2022-11-25T03:57:58.891Z,9.73
2022-11-25T04:00:33.436Z,13.75
2022-11-25T04:03:03.715Z,9.73
2022-11-25T04:05:33.377Z,11.45
2022-11-25T04:08:08.167Z,16.75
2022-11-25T04:10:37.041Z,11.70
2022-11-25T04:13:06.486Z,10.50
2022-11-25T04:15:37.643Z,15.45
2022-11-25T04:18:09.489Z,5.82
2022-11-25T04:20:36.536Z,10.70
2022-11-25T04:23:09.180Z,13.68
2022-11-25T04:25:43.231Z,18.70
2022-11-25T04:28:20.500Z,12.38
2022-11-25T04:30:47.806Z,8.60
2022-11-25T04:33:14.980Z,19.50
2022-11-25T04:35:43.463Z,11.20
2022-11-25T04:38:12.721Z,11.00
2022-11-25T04:40:43.500Z,15.27
2022-11-25T04:43:17.789Z,14.32
2022-11-25T04:46:13.582Z,12.18
2022-11-25T04:48:44.518Z,10.85
2022-11-25T04:51:12.572Z,10.60
2022-11-25T04:53:41.023Z,9.98
2022-11-25T04:56:17.465Z,9.70
2022-11-25T04:59:05.333Z,11.40
2022-11-25T05:01:34.081Z,7.88
2022-11-25T05:04:10.791Z,10.05
2022-11-25T05:06:38.967Z,19.98
2022-11-25T05:09:07.108Z,14.32
2022-11-25T05:11:36.640Z,10.48
2022-11-25T05:14:05.035Z,16.23
2022-11-25T05:16:34.160Z,12.38
2022-11-25T05:19:02.719Z,17.38
2022-11-25T05:21:29.548Z,11.85
2022-11-25T05:23:57.476Z,9.32
2022-11-25T05:26:28.680Z,10.23
2022-11-25T05:28:59.464Z,11.68
2022-11-25T05:31:27.834Z,8.38
2022-11-25T05:33:54.775Z,13.75
2022-11-25T05:36:26.136Z,11.65
2022-11-25T05:38:57.376Z,12.98
2022-11-25T05:41:35.496Z,8.82
2022-11-25T05:44:05.481Z,17.48
2022-11-25T05:46:36.164Z,15.07
2022-11-25T05:49:05.174Z,9.68
2022-11-25T05:51:32.733Z,16.27
2022-11-25T05:54:04.453Z,8.43
2022-11-25T05:56:36.160Z,10.40
2022-11-25T05:59:29.720Z,14.40
2022-11-25T06:02:09.327Z,12.68
2022-11-25T06:04:37.728Z,14.25
2022-11-25T06:07:04.937Z,16.00
2022-11-25T06:09:32.026Z,16.23
2022-11-25T06:12:00.722Z,15.48
2022-11-25T06:14:29.333Z,17.63
2022-11-25T06:16:56.494Z,16.38
2022-11-25T06:19:31.572Z,15.05
2022-11-25T06:21:58.557Z,8.55
2022-11-25T06:24:28.636Z,13.00
2022-11-25T06:27:01.391Z,15.02
2022-11-25T06:29:32.331Z,18.45
2022-11-25T06:32:00.044Z,23.63
2022-11-25T06:34:41.933Z,18.42
2022-11-25T06:37:17.179Z,18.98
2022-11-25T06:39:44.115Z,10.43
2022-11-25T06:42:12.067Z,15.85
2022-11-25T06:44:39.112Z,15.02
2022-11-25T06:47:07.060Z,13.35
2022-11-25T06:49:34.083Z,12.63
2022-11-25T06:52:01.151Z,12.75
2022-11-25T06:54:28.040Z,17.15
2022-11-25T06:56:54.950Z,15.07
2022-11-25T06:59:23.826Z,19.60
2022-11-25T07:06:27.106Z,14.73
2022-11-25T07:08:57.154Z,17.08
2022-11-25T07:11:33.299Z,23.42
2022-11-25T07:14:06.109Z,15.23
2022-11-25T07:16:36.196Z,16.83
2022-11-25T07:19:04.928Z,18.33
2022-11-25T07:22:32.725Z,15.48
2022-11-25T07:24:59.783Z,21.55
2022-11-25T07:27:26.639Z,15.27
2022-11-25T07:30:29.156Z,17.88
2022-11-25T07:32:40.520Z,17.58
2022-11-25T07:35:09.503Z,14.65
2022-11-25T07:37:36.370Z,17.27
2022-11-25T07:40:03.445Z,22.10
2022-11-25T07:42:30.242Z,18.00
2022-11-25T07:44:57.228Z,18.35
2022-11-25T07:47:43.684Z,20.30
2022-11-25T07:50:11.145Z,19.08
2022-11-25T07:52:40.692Z,17.65
2022-11-25T07:55:08.309Z,23.67
2022-11-25T07:57:35.343Z,17.50
2022-11-25T08:00:04.277Z,23.65
2022-11-25T08:02:39.356Z,19.58
2022-11-25T08:05:06.912Z,26.05
2022-11-25T08:07:36.671Z,23.35
2022-11-25T08:10:04.743Z,15.73
2022-11-25T08:12:34.864Z,17.92
2022-11-25T08:15:01.846Z,19.25
2022-11-25T08:17:28.704Z,24.52
2022-11-25T08:19:57.577Z,27.08
2022-11-25T08:22:24.543Z,22.25
2022-11-25T08:24:51.565Z,18.38
2022-11-25T08:27:18.364Z,16.98
2022-11-25T08:29:45.233Z,21.65
2022-11-25T08:32:12.290Z,21.77
2022-11-25T08:34:39.213Z,17.70
2022-11-25T08:37:07.520Z,19.20
2022-11-25T08:42:22.876Z,19.23
2022-11-25T08:44:54.084Z,19.80
2022-11-25T08:47:21.543Z,19.17
2022-11-25T08:49:55.071Z,14.55
2022-11-25T08:52:22.723Z,15.43
2022-11-25T08:54:51.572Z,18.98
2022-11-25T08:57:18.405Z,18.90
2022-11-25T08:59:45.525Z,18.83
2022-11-25T09:02:15.112Z,22.75
2022-11-25T09:04:45.180Z,20.90
2022-11-25T09:07:12.351Z,19.27
2022-11-25T09:09:40.838Z,21.50
2022-11-25T09:12:07.813Z,15.00
2022-11-25T09:14:35.897Z,12.45
2022-11-25T09:17:03.720Z,9.82
2022-11-25T09:19:30.620Z,14.55
2022-11-25T09:21:57.489Z,13.48
2022-11-25T09:24:24.327Z,12.68
2022-11-25T09:26:52.258Z,15.10
2022-11-25T09:29:19.210Z,15.35
2022-11-25T09:31:48.921Z,13.18
2022-11-25T09:34:20.983Z,12.65
2022-11-25T09:36:48.798Z,16.38
2022-11-25T09:39:16.786Z,14.07
2022-11-25T09:42:40.682Z,16.90
2022-11-25T09:45:35.968Z,13.93
2022-11-25T09:48:06.326Z,18.27
2022-11-25T09:51:00.514Z,13.25
2022-11-25T09:53:42.864Z,10.93
2022-11-25T09:56:44.780Z,15.80
2022-11-25T09:59:28.925Z,8.07
2022-11-25T10:02:02.362Z,12.40
2022-11-25T10:05:01.498Z,9.18
2022-11-25T10:07:36.624Z,8.77
2022-11-25T10:10:05.929Z,14.73
2022-11-25T10:12:37.622Z,8.20
2022-11-25T10:15:13.357Z,10.67
2022-11-25T10:18:06.786Z,13.23
2022-11-25T10:20:36.857Z,13.35
2022-11-25T10:23:16.397Z,17.60
2022-11-25T10:25:47.414Z,9.93
2022-11-25T10:28:29.632Z,10.48
2022-11-25T10:31:06.399Z,7.18
2022-11-25T10:33:41.860Z,19.30
2022-11-25T10:36:17.816Z,23.33
2022-11-25T10:39:03.105Z,12.75
2022-11-25T10:41:34.835Z,12.73
2022-11-25T10:44:01.696Z,9.80
2022-11-25T10:47:11.678Z,13.60
2022-11-25T10:49:34.529Z,6.68
2022-11-25T10:52:09.604Z,8.02
2022-11-25T10:54:36.568Z,8.55
2022-11-25T10:57:19.864Z,12.82
2022-11-25T10:59:59.029Z,10.35
2022-11-25T11:02:37.677Z,9.52
2022-11-25T11:05:18.505Z,14.70
2022-11-25T11:07:46.828Z,9.98
2022-11-25T11:10:17.683Z,13.30
2022-11-25T11:13:02.464Z,13.45
2022-11-25T11:15:32.551Z,14.82
2022-11-25T11:18:13.811Z,12.45
2022-11-25T11:20:48.407Z,13.00
2022-11-25T11:23:15.740Z,13.05
2022-11-25T11:25:56.688Z,13.23
2022-11-25T11:28:41.988Z,16.90
2022-11-25T11:31:19.564Z,16.27
2022-11-25T11:34:08.104Z,15.43
2022-11-25T11:36:54.385Z,13.73
2022-11-25T11:40:00.049Z,18.20
2022-11-25T11:42:57.662Z,15.27
2022-11-25T11:45:34.306Z,15.07
2022-11-25T11:48:23.123Z,14.35
2022-11-25T11:51:17.751Z,11.32
2022-11-25T11:53:59.963Z,13.25
2022-11-25T11:56:35.596Z,17.67
2022-11-25T11:59:13.563Z,13.85
2022-11-25T12:01:55.461Z,19.20
2022-11-25T12:04:31.030Z,15.10
2022-11-25T12:07:30.188Z,19.45
2022-11-25T12:10:38.844Z,13.88
2022-11-25T12:13:23.245Z,19.70
2022-11-25T12:15:58.747Z,18.77
2022-11-25T12:18:55.744Z,15.20
2022-11-25T12:21:42.924Z,13.73
2022-11-25T12:24:17.753Z,17.33
2022-11-25T12:27:15.473Z,21.77
2022-11-25T12:29:50.654Z,12.38
2022-11-25T12:32:32.954Z,17.20
2022-11-25T12:35:17.632Z,17.23
2022-11-25T12:37:49.737Z,20.20
2022-11-25T12:40:34.173Z,21.30
2022-11-25T12:43:15.565Z,20.75
2022-11-25T12:45:45.735Z,18.88
2022-11-25T12:48:21.147Z,18.65
2022-11-25T12:51:00.021Z,19.48
2022-11-25T12:53:50.543Z,19.00
2022-11-25T12:56:27.501Z,16.45
2022-11-25T12:59:33.374Z,23.23
2022-11-25T13:02:21.083Z,19.33
2022-11-25T13:05:40.024Z,22.65
2022-11-25T13:08:39.132Z,21.90
2022-11-25T13:11:37.775Z,25.90
2022-11-25T13:14:25.285Z,23.23
2022-11-25T13:16:55.991Z,28.80
2022-11-25T13:19:24.473Z,20.60
2022-11-25T13:22:04.343Z,16.45
2022-11-25T13:24:39.950Z,23.63
2022-11-25T13:27:29.734Z,22.20
2022-11-25T13:29:59.332Z,20.77
2022-11-25T13:32:32.117Z,23.60
2022-11-25T13:35:34.754Z,22.17
2022-11-25T13:38:06.498Z,17.30
2022-11-25T13:40:39.106Z,27.63
2022-11-25T13:45:48.379Z,20.90
2022-11-25T13:48:30.765Z,17.73
2022-11-25T13:51:22.411Z,22.27
2022-11-25T13:53:57.946Z,22.35
2022-11-25T13:56:31.879Z,21.67
2022-11-25T13:59:11.062Z,23.05
2022-11-25T14:01:47.113Z,25.92
2022-11-25T14:04:17.343Z,26.40
2022-11-25T14:07:01.715Z,18.85
2022-11-25T14:10:08.143Z,26.05
2022-11-25T14:12:58.787Z,23.98
2022-11-25T14:16:06.476Z,19.40
2022-11-25T14:21:45.688Z,22.95
2022-11-25T14:24:50.688Z,26.33
2022-11-25T14:27:25.604Z,29.55
2022-11-25T14:30:00.991Z,20.58
2022-11-25T14:33:02.586Z,20.70
2022-11-25T14:35:37.869Z,17.23
2022-11-25T14:39:08.851Z,24.92
2022-11-25T14:41:57.967Z,21.88
2022-11-25T14:44:35.915Z,20.75
2022-11-25T14:47:05.893Z,19.63
2022-11-25T14:52:46.013Z,22.42
2022-11-25T14:55:26.312Z,26.90
2022-11-25T14:57:55.820Z,19.30
2022-11-25T15:00:23.456Z,22.65
2022-11-25T15:02:56.372Z,23.30
2022-11-25T15:05:30.755Z,23.42
2022-11-25T15:08:01.622Z,24.95
2022-11-25T15:10:36.953Z,24.90
2022-11-25T15:13:13.146Z,26.08
2022-11-25T15:15:45.131Z,25.05
2022-11-25T15:18:20.161Z,22.67
2022-11-25T15:20:59.839Z,21.33
2022-11-25T15:23:36.335Z,27.75
2022-11-25T15:26:05.198Z,23.30
2022-11-25T15:28:38.251Z,23.60
2022-11-25T15:31:24.962Z,22.25
2022-11-25T15:33:56.606Z,28.30
2022-11-25T15:36:25.100Z,23.65
2022-11-25T15:38:52.198Z,28.40
2022-11-25T15:41:29.888Z,25.65
2022-11-25T15:44:00.649Z,18.00
2022-11-25T15:46:30.541Z,30.48
2022-11-25T15:49:05.678Z,29.60
2022-11-25T15:51:50.476Z,24.55
2022-11-25T15:54:31.322Z,24.05
2022-11-25T15:57:03.517Z,29.52
2022-11-25T15:59:48.432Z,22.20
2022-11-25T16:02:36.220Z,29.52
2022-11-25T16:05:16.722Z,29.83
2022-11-25T16:07:53.246Z,32.35
2022-11-25T16:10:31.877Z,22.80
2022-11-25T16:13:23.916Z,19.85
2022-11-25T16:16:21.195Z,23.63
2022-11-25T16:19:02.998Z,24.83
2022-11-25T16:21:41.482Z,28.13
2022-11-25T16:24:38.033Z,25.55
2022-11-25T16:27:16.267Z,29.98
2022-11-25T16:30:04.483Z,27.50
2022-11-25T16:32:33.033Z,22.90
2022-11-25T16:35:22.206Z,31.73
2022-11-25T16:37:50.254Z,34.65
2022-11-25T16:40:18.613Z,27.40
2022-11-25T16:42:48.548Z,28.02
2022-11-25T16:45:20.962Z,24.67
2022-11-25T16:47:47.944Z,26.15
2022-11-25T16:50:19.019Z,23.50
2022-11-25T16:52:46.284Z,28.55
2022-11-25T16:55:18.606Z,29.65
2022-11-25T16:57:47.007Z,32.90
2022-11-25T17:00:17.332Z,26.75
2022-11-25T17:02:46.454Z,35.55
2022-11-25T17:05:24.543Z,31.33
2022-11-25T17:07:57.846Z,25.80
2022-11-25T17:10:27.135Z,39.30
2022-11-25T17:12:55.376Z,34.83
2022-11-25T17:15:32.958Z,29.88
2022-11-25T17:18:02.367Z,29.05
2022-11-25T17:20:30.440Z,28.55
2022-11-25T17:23:00.538Z,35.03
2022-11-25T17:25:35.299Z,31.65
2022-11-25T17:28:04.343Z,27.83
2022-11-25T17:30:32.845Z,35.35
2022-11-25T17:33:07.713Z,26.98
2022-11-25T17:35:34.667Z,31.55
2022-11-25T17:38:17.464Z,33.92
2022-11-25T17:43:19.495Z,32.80
2022-11-25T17:45:49.589Z,31.25
2022-11-25T17:48:19.071Z,31.00
2022-11-25T17:50:48.098Z,30.75
2022-11-25T17:53:14.980Z,32.25
2022-11-25T17:55:43.164Z,37.50
2022-11-25T17:58:12.296Z,38.25
2022-11-25T18:00:43.378Z,38.92
2022-11-25T18:03:12.994Z,27.40
2022-11-25T18:05:42.359Z,37.28
2022-11-25T18:08:09.369Z,35.63
2022-11-25T18:10:36.250Z,30.33
2022-11-25T18:13:03.699Z,34.35
2022-11-25T18:15:34.124Z,30.75
2022-11-25T18:18:09.626Z,35.70
2022-11-25T18:20:37.019Z,33.00
2022-11-25T18:23:03.942Z,41.72
2022-11-25T18:25:33.969Z,33.03
2022-11-25T18:28:03.987Z,33.17
2022-11-25T18:30:33.586Z,38.25
2022-11-25T18:33:01.609Z,36.35
2022-11-25T18:35:36.095Z,34.05
2022-11-25T18:38:04.160Z,39.00
2022-11-25T18:40:31.223Z,33.03
2022-11-25T18:43:02.436Z,39.97
2022-11-25T18:45:36.039Z,33.75
2022-11-25T18:48:22.128Z,38.53
2022-11-25T18:50:50.825Z,41.30
2022-11-25T18:53:18.782Z,35.08
2022-11-25T18:55:48.459Z,36.17
2022-11-25T18:58:27.185Z,27.13
2022-11-25T19:01:00.734Z,33.97
2022-11-25T19:03:27.756Z,33.55
2022-11-25T19:05:55.891Z,37.80
2022-11-25T19:08:23.871Z,39.15
2022-11-25T19:10:51.500Z,41.90
2022-11-25T19:13:25.682Z,34.13
2022-11-25T19:15:53.013Z,34.13
2022-11-25T19:18:26.734Z,30.55
2022-11-25T19:20:54.077Z,34.10
2022-11-25T19:23:27.849Z,37.85
2022-11-25T19:25:59.763Z,35.63
2022-11-25T19:28:27.597Z,32.88
2022-11-25T19:31:00.467Z,36.92
2022-11-25T19:33:34.607Z,41.92
2022-11-25T19:36:01.684Z,34.75
2022-11-25T19:38:29.885Z,37.72
2022-11-25T19:40:57.797Z,35.70
2022-11-25T19:43:27.022Z,32.70
2022-11-25T19:45:56.939Z,34.22
2022-11-25T19:48:28.395Z,42.85
2022-11-25T19:50:59.971Z,50.05
2022-11-25T19:53:33.115Z,41.53
2022-11-25T19:56:04.818Z,30.98
2022-11-25T19:58:32.465Z,38.05
2022-11-25T20:01:03.812Z,32.20
2022-11-25T20:03:33.405Z,36.25
2022-11-25T20:06:00.295Z,41.35
2022-11-25T20:08:29.236Z,34.20
2022-11-25T20:10:56.761Z,45.30
2022-11-25T20:13:25.928Z,41.55
2022-11-25T20:15:54.917Z,29.73
2022-11-25T20:18:24.265Z,46.13
2022-11-25T20:21:00.713Z,35.78
2022-11-25T20:23:37.453Z,34.55
2022-11-25T20:26:26.850Z,34.63
2022-11-25T20:28:53.722Z,45.88
2022-11-25T20:31:22.193Z,39.67
2022-11-25T20:33:50.606Z,38.05
2022-11-25T20:36:22.291Z,48.13
2022-11-25T20:38:54.826Z,39.00
2022-11-25T20:41:27.532Z,42.65
2022-11-25T20:43:56.477Z,47.25
2022-11-25T20:46:27.041Z,58.78
2022-11-25T20:48:57.401Z,49.58
2022-11-25T20:51:26.093Z,42.33
2022-11-25T20:53:59.517Z,46.72
2022-11-25T20:56:27.625Z,42.67
2022-11-25T20:58:55.141Z,40.53
2022-11-25T21:01:22.602Z,41.42
2022-11-25T21:03:50.341Z,35.10
2022-11-25T21:06:27.649Z,35.50
2022-11-25T21:08:56.716Z,55.83
2022-11-25T21:11:24.004Z,43.10
2022-11-25T21:13:52.113Z,43.90
2022-11-25T21:16:19.052Z,36.00
2022-11-25T21:18:46.323Z,44.80
2022-11-25T21:21:29.149Z,35.97
2022-11-25T21:23:57.663Z,33.67
2022-11-25T21:26:26.663Z,36.05
2022-11-25T21:28:55.277Z,40.97
2022-11-25T21:31:24.495Z,37.22
2022-11-25T21:33:56.526Z,37.72
2022-11-25T21:36:27.936Z,38.80
2022-11-25T21:39:04.147Z,33.88
2022-11-25T21:41:31.170Z,33.15
2022-11-25T21:44:00.567Z,37.15
2022-11-25T21:46:28.895Z,36.33
2022-11-25T21:48:55.886Z,42.25
2022-11-25T21:51:26.510Z,36.58
2022-11-25T21:53:54.744Z,38.20
2022-11-25T21:56:37.554Z,36.10
2022-11-25T22:01:36.017Z,36.80
2022-11-25T22:04:04.127Z,39.13
2022-11-25T22:06:35.461Z,44.70
2022-11-25T22:09:03.770Z,35.53
2022-11-25T22:11:34.712Z,43.13
2022-11-25T22:14:13.174Z,41.38
2022-11-25T22:16:41.460Z,39.70
2022-11-25T22:19:18.072Z,45.28
2022-11-25T22:21:45.997Z,46.95
2022-11-25T22:24:24.130Z,34.47
2022-11-25T22:26:57.842Z,41.38
2022-11-25T22:29:33.961Z,41.95
2022-11-25T22:32:01.642Z,48.70
2022-11-25T22:34:30.708Z,43.78
2022-11-25T22:36:57.733Z,41.35
2022-11-25T22:39:26.723Z,37.03
2022-11-25T22:42:07.677Z,41.35
2022-11-25T22:44:43.988Z,36.03
2022-11-25T22:47:37.917Z,39.90
2022-11-25T22:50:27.338Z,43.85
2022-11-25T22:52:55.477Z,42.25
2022-11-25T22:55:27.659Z,43.20
2022-11-25T22:57:58.771Z,43.92
2022-11-25T23:00:28.453Z,43.00
2022-11-25T23:02:57.439Z,50.90
2022-11-25T23:05:32.155Z,30.50
2022-11-25T23:08:09.883Z,34.83
2022-11-25T23:10:36.842Z,37.97
2022-11-25T23:13:03.680Z,39.00
2022-11-25T23:15:31.710Z,50.33
2022-11-25T23:18:01.027Z,36.33
2022-11-25T23:20:29.260Z,44.17
2022-11-25T23:23:01.803Z,39.90
2022-11-25T23:25:29.671Z,37.13
2022-11-25T23:27:57.513Z,38.00
2022-11-25T23:30:24.592Z,45.05
2022-11-25T23:32:53.467Z,40.65
2022-11-25T23:35:32.396Z,40.17
2022-11-25T23:38:00.513Z,36.95
2022-11-25T23:40:28.209Z,45.05
2022-11-25T23:42:56.238Z,39.05
2022-11-25T23:45:25.933Z,47.90
2022-11-25T23:47:55.028Z,40.67
2022-11-25T23:50:28.627Z,45.38
2022-11-25T23:53:01.119Z,42.10
2022-11-25T23:55:38.402Z,42.60
2022-11-25T23:58:14.744Z,29.77
